createdAt,value
2017-11-19T00:02:34.995Z,8.45
2017-11-19T00:17:36.354Z,8.35
2017-11-19T00:32:37.328Z,8.30
2017-11-19T00:47:35.251Z,8.30
2017-11-19T01:02:35.261Z,8.28
2017-11-19T01:17:34.816Z,8.27
2017-11-19T01:32:35.656Z,8.24
2017-11-19T01:47:34.481Z,8.27
2017-11-19T02:02:34.437Z,8.28
2017-11-19T02:17:37.313Z,8.27
2017-11-19T02:32:35.740Z,8.24
2017-11-19T02:47:36.739Z,8.21
2017-11-19T03:02:36.624Z,8.21
2017-11-19T03:17:35.133Z,8.22
2017-11-19T03:32:34.990Z,8.20
2017-11-19T03:47:34.975Z,8.19
2017-11-19T04:02:36.876Z,8.20
2017-11-19T04:17:35.305Z,8.13
2017-11-19T04:32:35.288Z,8.08
2017-11-19T04:47:35.224Z,7.93
2017-11-19T05:02:35.159Z,7.77
2017-11-19T05:17:34.548Z,7.61
2017-11-19T05:32:34.464Z,7.46
2017-11-19T05:47:34.421Z,7.42
2017-11-19T06:02:34.365Z,7.60
2017-11-19T06:17:36.557Z,7.74
2017-11-19T06:32:34.485Z,7.87
2017-11-19T06:47:34.665Z,7.95
2017-11-19T07:02:34.597Z,8.13
2017-11-19T07:17:35.008Z,8.23
2017-11-19T07:32:34.987Z,8.38
2017-11-19T07:47:34.710Z,8.72
2017-11-19T08:02:36.613Z,9.16
2017-11-19T08:17:35.107Z,9.50
2017-11-19T08:32:34.982Z,9.76
2017-11-19T08:47:36.923Z,10.07
2017-11-19T09:02:37.154Z,9.96
2017-11-19T09:17:34.562Z,9.68
2017-11-19T09:32:34.510Z,9.57
2017-11-19T09:47:33.904Z,9.48
2017-11-19T10:02:35.333Z,9.39
2017-11-19T10:17:35.155Z,9.31
2017-11-19T10:32:34.721Z,9.23
2017-11-19T10:47:38.339Z,9.15
2017-11-19T11:02:36.633Z,9.13
2017-11-19T11:17:35.071Z,9.24
2017-11-19T11:32:37.200Z,9.16
2017-11-19T11:47:35.259Z,9.03
2017-11-19T12:02:35.523Z,8.95
2017-11-19T12:17:34.795Z,8.92
2017-11-19T12:32:35.458Z,8.83
2017-11-19T12:47:35.282Z,8.76
2017-11-19T13:02:35.533Z,8.72
2017-11-19T13:17:34.404Z,8.71
2017-11-19T13:32:33.999Z,8.75
2017-11-19T13:47:34.198Z,8.73
2017-11-19T14:02:34.194Z,8.65
2017-11-19T14:17:34.623Z,8.59
2017-11-19T14:32:34.021Z,8.53
2017-11-19T14:47:34.455Z,8.41
2017-11-19T15:02:33.431Z,8.27
2017-11-19T15:17:37.018Z,8.11
2017-11-19T15:32:35.150Z,7.90
2017-11-19T15:47:38.166Z,7.83
2017-11-19T16:02:37.217Z,7.68
2017-11-19T16:17:38.640Z,7.53
2017-11-19T16:32:35.025Z,7.49
2017-11-19T16:47:35.285Z,7.48
2017-11-19T17:02:35.855Z,7.57
2017-11-19T17:17:37.196Z,7.57
2017-11-19T17:32:35.026Z,7.54
2017-11-19T17:47:34.405Z,7.55
2017-11-19T18:02:34.684Z,7.35
2017-11-19T18:17:35.812Z,7.39
2017-11-19T18:32:34.552Z,7.35
2017-11-19T18:47:37.633Z,7.31
2017-11-19T19:02:34.408Z,7.25
2017-11-19T19:17:36.997Z,7.25
2017-11-19T19:32:35.249Z,7.29
2017-11-19T19:47:34.942Z,7.21
2017-11-19T20:02:34.582Z,7.09
2017-11-19T20:17:36.217Z,6.82
2017-11-19T20:32:35.314Z,6.45
2017-11-19T20:47:34.994Z,5.91
2017-11-19T22:02:35.249Z,4.14
2017-11-19T22:32:34.405Z,4.01
2017-11-19T22:47:36.391Z,3.94
2017-11-19T23:02:34.324Z,3.86
2017-11-19T23:17:34.709Z,3.77
2017-11-19T23:32:36.620Z,3.73
